HTIR/IRI METAR and TAF weather

Enter ICAO airport designator
Station Type Date Time Source
HTIR METAR 2022/01/28 16:00 UTC NOAA

HTIR 281600Z 00000KT 9999 SCT023 FEW024CB BKN070 23/19 Q1016


Station Type Date Time Source
HTIR Decoded METAR 2022/01/28 16:00 UTC NOAA

Iringa, Tanzania (HTIR) 07-40S 035-45E 1428M
Jan 28, 2022 - 11:00 AM EST / 2022.01.28 1600 UTC
Wind: Calm:0
Visibility: greater than 7 mile(s):0
Sky conditions: mostly cloudy
Weather: Cumulonimbus clouds observed
Temperature: 73 F (23 C)
Dew Point: 66 F (19 C)
Relative Humidity: 78%
Pressure (altimeter): 30.00 in. Hg (1016 hPa)
ob: HTIR 281600Z 00000KT 9999 SCT023 FEW024CB BKN070 23/19 Q1016
cycle: 16

Station Type Date Time Source
HTIR TAF UTC NOAA

Error!

Example: see airport list